Time;durP1;ratioP1;P1;durP2;ratioP2;P2;SDS_P1;SDS_P2;PMS_P1;PMS_P2;Temp;Humidity;BMP_temperature;BMP_pressure;BME280_temperature;BME280_humidity;BME280_pressure;Samples;Min_cycle;Max_cycle;Signal;HPM_P1;HPM_P2
2022/12/21 00:01:23;;;;;;;31.02;15.65;;;;;;;1.36;100.00;98811.66;4159754;34;20041;-74
2022/12/21 00:03:55;;;;;;;34.25;13.25;;;;;;;1.44;100.00;98795.56;4167005;34;20430;-72
2022/12/21 00:06:23;;;;;;;33.80;13.57;;;;;;;1.42;100.00;98792.31;4189187;34;20105;-75
2022/12/21 00:08:52;;;;;;;38.42;16.05;;;;;;;1.31;100.00;98784.91;4195637;34;20086;-74
2022/12/21 00:11:24;;;;;;;23.62;10.32;;;;;;;0.98;100.00;98736.97;4196270;34;20035;-74
2022/12/21 00:13:55;;;;;;;39.33;14.60;;;;;;;1.07;100.00;98768.44;4194868;34;20417;-72
2022/12/21 00:16:23;;;;;;;23.38;10.48;;;;;;;1.32;100.00;98764.47;4204410;34;20594;-74
2022/12/21 00:18:50;;;;;;;30.00;11.80;;;;;;;1.24;100.00;98768.09;4196029;34;20174;-73
2022/12/21 00:21:19;;;;;;;27.13;10.95;;;;;;;1.17;100.00;98746.06;4196439;34;20135;-74
2022/12/21 00:23:48;;;;;;;36.38;14.95;;;;;;;1.39;100.00;98781.28;4196247;34;20036;-72
2022/12/21 00:26:17;;;;;;;34.38;13.95;;;;;;;1.20;100.00;98756.28;4201560;34;20063;-74
2022/12/21 00:28:44;;;;;;;36.97;15.95;;;;;;;1.11;100.00;98754.78;4208772;34;20114;-74
2022/12/21 00:31:13;;;;;;;35.20;13.62;;;;;;;1.01;100.00;98761.25;4206455;34;20082;-74
2022/12/21 00:33:41;;;;;;;40.58;14.23;;;;;;;1.36;100.00;98801.03;4193794;34;20073;-72
2022/12/21 00:36:12;;;;;;;38.03;15.32;;;;;;;1.23;100.00;98777.91;4201976;34;20240;-74
2022/12/21 00:38:38;;;;;;;35.33;13.95;;;;;;;1.68;100.00;98809.38;4195463;34;20057;-74
2022/12/21 00:41:07;;;;;;;32.05;14.63;;;;;;;1.33;100.00;98796.13;4195868;34;20043;-74
2022/12/21 00:43:39;;;;;;;39.15;14.77;;;;;;;1.05;100.00;98765.16;4193334;34;20488;-73
2022/12/21 00:46:06;;;;;;;32.00;12.93;;;;;;;1.31;100.00;98795.50;4223118;34;20046;-73
2022/12/21 00:48:35;;;;;;;33.15;14.82;;;;;;;1.34;100.00;98816.34;4222803;34;20077;-72
2022/12/21 00:51:10;;;;;;;37.45;13.52;;;;;;;1.20;100.00;98809.31;4222951;34;20563;-70
2022/12/21 00:53:37;;;;;;;31.08;14.35;;;;;;;1.37;100.00;98821.25;4222733;34;20294;-73
2022/12/21 00:56:06;;;;;;;32.22;13.27;;;;;;;1.43;100.00;98819.66;4221982;34;20063;-73
2022/12/21 00:58:33;;;;;;;31.92;10.75;;;;;;;1.51;100.00;98805.41;4209410;34;20039;-74
2022/12/21 03:02:40;;;;;;;39.22;15.35;;;;;;;0.64;100.00;98677.59;4250322;28;20079;-70
2022/12/21 03:05:23;;;;;;;32.85;14.27;;;;;;;0.80;100.00;98665.88;4227648;33;20076;-73
2022/12/21 03:08:21;;;;;;;32.05;14.05;;;;;;;0.66;100.00;98665.00;4227117;33;20039;-71
2022/12/21 03:11:08;;;;;;;35.10;13.55;;;;;;;0.52;100.00;98640.25;4226338;33;20072;-73
2022/12/21 03:13:46;;;;;;;31.58;13.75;;;;;;;0.64;100.00;98678.44;4225796;33;20100;-72
2022/12/21 03:16:25;;;;;;;34.65;14.48;;;;;;;0.87;100.00;98703.84;4226372;33;20050;-74
2022/12/21 03:19:26;;;;;;;35.88;13.77;;;;;;;0.69;100.00;98707.00;4226685;33;20047;-73
2022/12/21 03:22:08;;;;;;;37.67;14.75;;;;;;;0.90;100.00;98703.47;4226336;33;20072;-73
2022/12/21 03:25:10;;;;;;;38.85;14.70;;;;;;;0.62;100.00;98706.94;4224577;33;20369;-73
2022/12/21 03:27:43;;;;;;;35.22;14.87;;;;;;;0.90;100.00;98692.88;4221167;33;20057;-73
2022/12/21 03:30:13;;;;;;;34.25;14.45;;;;;;;0.85;100.00;98688.16;4225684;33;20065;-72
2022/12/21 03:32:51;;;;;;;33.67;14.73;;;;;;;0.22;100.00;98658.97;4226699;33;20080;-74
2022/12/21 03:35:26;;;;;;;37.95;15.65;;;;;;;0.33;100.00;98676.97;4226671;33;20397;-74
2022/12/21 03:37:56;;;;;;;45.35;15.63;;;;;;;0.45;100.00;98695.03;4210817;34;20093;-72
2022/12/21 03:40:26;;;;;;;32.50;13.30;;;;;;;0.18;100.00;98663.03;4209717;34;20055;-73
2022/12/21 03:43:26;;;;;;;27.87;13.43;;;;;;;0.46;100.00;98680.75;4210587;34;20188;-74
2022/12/21 03:45:59;;;;;;;31.87;12.65;;;;;;;0.34;100.00;98694.53;4208496;34;20064;-74
2022/12/21 03:48:33;;;;;;;39.47;14.70;;;;;;;0.38;100.00;98686.19;4210468;34;20027;-74
2022/12/21 03:51:07;;;;;;;47.13;15.02;;;;;;;0.47;100.00;98682.41;4194932;34;20188;-73
2022/12/21 03:53:47;;;;;;;23.50;9.82;;;;;;;0.53;100.00;98686.94;4196352;34;20056;-73
2022/12/21 03:56:24;;;;;;;43.28;15.60;;;;;;;0.04;100.00;98666.59;4198120;34;20054;-73
2022/12/21 03:58:51;;;;;;;32.97;14.10;;;;;;;0.59;100.00;98703.88;4196851;34;20031;-73
2022/12/21 04:01:17;;;;;;;36.47;14.73;;;;;;;0.54;100.00;98704.44;4194323;34;20082;-72
2022/12/21 04:06:27;;;;;;;49.33;15.80;;;;;;;0.23;100.00;98631.50;4190471;34;20386;-73
2022/12/21 04:08:54;;;;;;;43.03;16.17;;;;;;;0.61;100.00;98665.59;4195010;34;20055;-73
2022/12/21 04:14:05;;;;;;;33.50;13.13;;;;;;;0.30;100.00;98658.00;4193965;34;20048;-74
2022/12/21 04:16:32;;;;;;;34.83;14.20;;;;;;;0.56;100.00;98649.44;4188546;34;20059;-73
2022/12/21 04:21:43;;;;;;;30.95;11.12;;;;;;;0.52;100.00;98629.66;4196365;34;20492;-73
2022/12/21 04:29:57;;;;;;;30.92;12.32;;;;;;;0.07;100.00;98578.84;4192339;34;20036;-73
2022/12/21 04:32:24;;;;;;;39.20;16.40;;;;;;;0.01;100.00;98566.38;4167348;34;20181;-74
2022/12/21 04:34:50;;;;;;;27.77;12.70;;;;;;;0.23;100.00;98581.19;4168428;34;20565;-74
2022/12/21 04:37:31;;;;;;;29.90;12.75;;;;;;;0.11;100.00;98591.50;4168102;34;20082;-73
2022/12/21 04:39:59;;;;;;;38.05;14.45;;;;;;;0.08;100.00;98610.41;4165721;34;20037;-74
2022/12/21 04:42:26;;;;;;;39.05;14.27;;;;;;;0.42;100.00;98615.94;4181663;34;20040;-74
2022/12/21 04:44:52;;;;;;;33.53;13.93;;;;;;;0.40;100.00;98641.78;4183935;34;20423;-74
2022/12/21 04:47:19;;;;;;;33.95;13.02;;;;;;;0.52;100.00;98656.12;4181859;34;20093;-74
2022/12/21 04:49:45;;;;;;;38.22;14.93;;;;;;;0.44;100.00;98651.00;4180302;34;20070;-73
2022/12/21 04:52:12;;;;;;;39.88;14.52;;;;;;;0.39;100.00;98633.03;4181902;34;20078;-74
2022/12/21 04:54:38;;;;;;;33.15;14.48;;;;;;;0.39;100.00;98626.94;4181428;34;20451;-73
2022/12/21 04:57:05;;;;;;;32.75;14.27;;;;;;;0.33;100.00;98608.13;4186606;34;20592;-74
2022/12/21 04:59:31;;;;;;;37.60;12.75;;;;;;;0.39;100.00;98637.53;4167936;34;20054;-73
2022/12/21 05:01:58;;;;;;;42.10;15.60;;;;;;;0.22;100.00;98632.50;4165403;34;20044;-72
2022/12/21 05:04:24;;;;;;;47.60;18.27;;;;;;;0.43;100.00;98665.25;4202867;34;20039;-74
2022/12/21 05:06:51;;;;;;;38.88;15.75;;;;;;;0.33;100.00;98623.19;4209316;34;20077;-73
2022/12/21 05:11:51;;;;;;;37.80;14.27;;;;;;;0.48;100.00;98661.00;4221718;33;20035;-72
2022/12/21 05:14:18;;;;;;;44.10;15.63;;;;;;;0.46;100.00;98627.78;4223223;33;20080;-74
2022/12/21 05:16:45;;;;;;;37.60;15.18;;;;;;;0.46;100.00;98627.78;4223166;33;20043;-74
2022/12/21 05:19:11;;;;;;;35.10;16.98;;;;;;;0.58;100.00;98668.63;4223060;33;20383;-75
2022/12/21 05:21:38;;;;;;;36.70;14.25;;;;;;;0.54;100.00;98646.16;4219811;33;20035;-72
2022/12/21 05:24:05;;;;;;;43.95;16.17;;;;;;;0.51;100.00;98662.44;4221546;33;20072;-73
2022/12/21 05:26:31;;;;;;;39.83;15.48;;;;;;;0.58;100.00;98651.91;4222553;33;20073;-73
2022/12/21 05:28:58;;;;;;;37.10;15.07;;;;;;;0.56;100.00;98633.56;4222935;33;20023;-74
2022/12/21 05:31:24;;;;;;;41.67;17.25;;;;;;;0.68;100.00;98647.06;4222034;34;20066;-73
2022/12/21 05:33:53;;;;;;;30.75;12.07;;;;;;;0.54;100.00;98647.00;4219982;33;20057;-72
2022/12/21 05:36:21;;;;;;;41.42;15.85;;;;;;;0.58;100.00;98631.53;4222614;34;20093;-73
2022/12/21 05:38:47;;;;;;;39.53;15.70;;;;;;;0.61;100.00;98656.81;4223932;34;20034;-74
2022/12/21 05:41:15;;;;;;;42.30;16.67;;;;;;;0.74;100.00;98662.19;4221303;34;20053;-74
2022/12/21 05:43:41;;;;;;;38.25;16.27;;;;;;;0.58;100.00;98615.63;4219892;34;20060;-74
2022/12/21 05:46:11;;;;;;;30.95;13.68;;;;;;;0.70;100.00;98640.56;4235509;33;20734;-74
2022/12/21 05:48:38;;;;;;;41.90;15.27;;;;;;;0.72;100.00;98653.63;4238224;33;20042;-72
2022/12/21 05:51:11;;;;;;;37.92;15.02;;;;;;;0.76;100.00;98632.84;4208737;34;20046;-73
2022/12/21 05:53:43;;;;;;;43.55;17.92;;;;;;;1.04;100.00;98654.00;4199089;34;20186;-71
2022/12/21 05:56:11;;;;;;;52.90;17.80;;;;;;;0.89;100.00;98641.69;4207260;34;20077;-73
2022/12/21 05:58:37;;;;;;;42.90;17.83;;;;;;;0.78;100.00;98622.84;4207283;34;20499;-72
2022/12/21 06:01:07;;;;;;;46.53;18.00;;;;;;;0.64;100.00;98598.13;4205649;34;20114;-72
2022/12/21 06:03:34;;;;;;;44.67;16.73;;;;;;;1.21;100.00;98643.84;4205823;34;20061;-71
2022/12/21 06:06:03;;;;;;;42.60;16.83;;;;;;;1.22;100.00;98634.88;4207420;34;20074;-74
2022/12/21 06:08:30;;;;;;;44.85;16.45;;;;;;;0.88;100.00;98602.12;4207673;34;20488;-73
2022/12/21 06:11:03;;;;;;;38.95;16.15;;;;;;;1.15;100.00;98631.38;4208762;34;20409;-73
2022/12/21 06:13:29;;;;;;;43.10;15.63;;;;;;;1.16;100.00;98622.41;4190003;34;20357;-73
2022/12/21 06:16:01;;;;;;;35.92;14.48;;;;;;;1.08;100.00;98626.84;4208850;34;20175;-73
2022/12/21 06:18:28;;;;;;;32.45;14.95;;;;;;;1.34;100.00;98624.50;4209563;34;20057;-73
2022/12/21 06:20:54;;;;;;;37.80;16.80;;;;;;;1.07;100.00;98622.59;4208185;34;20425;-73
2022/12/21 06:23:20;;;;;;;44.03;17.77;;;;;;;0.90;100.00;98586.84;4235977;33;20131;-73
2022/12/21 06:25:47;;;;;;;40.63;14.82;;;;;;;1.30;100.00;98624.09;4209133;34;20447;-73
2022/12/21 06:28:13;;;;;;;44.00;15.10;;;;;;;0.97;100.00;98595.62;4209950;34;20166;-74
2022/12/21 06:30:40;;;;;;;41.95;13.80;;;;;;;1.33;100.00;98623.69;4208136;34;20090;-73
2022/12/21 06:33:06;;;;;;;35.70;13.13;;;;;;;1.27;100.00;98612.03;4209127;34;20035;-72
2022/12/21 06:35:33;;;;;;;36.13;14.43;;;;;;;1.24;100.00;98619.59;4207975;34;20067;-73
2022/12/21 06:37:59;;;;;;;41.65;15.90;;;;;;;1.34;100.00;98630.66;4181406;34;20111;-73
2022/12/21 06:40:26;;;;;;;36.60;15.15;;;;;;;1.15;100.00;98604.84;4177831;34;20032;-73
2022/12/21 06:42:52;;;;;;;46.60;16.87;;;;;;;1.35;100.00;98632.25;4178043;34;20032;-74
2022/12/21 06:45:18;;;;;;;35.72;15.00;;;;;;;1.38;100.00;98642.47;4156485;34;20040;-71
2022/12/21 06:47:45;;;;;;;37.28;16.08;;;;;;;1.20;100.00;98635.09;4155852;34;20055;-73
2022/12/21 06:50:11;;;;;;;33.65;13.60;;;;;;;1.38;100.00;98642.47;4149060;34;20407;-73
2022/12/21 06:52:38;;;;;;;42.97;15.07;;;;;;;1.40;100.00;98651.03;4134400;34;20104;-72
2022/12/21 06:55:05;;;;;;;39.75;14.32;;;;;;;1.38;100.00;98608.00;4126072;34;20049;-73
2022/12/21 06:57:31;;;;;;;40.05;15.07;;;;;;;1.53;100.00;98650.28;4149472;34;20032;-72
2022/12/21 06:59:58;;;;;;;40.03;15.15;;;;;;;1.45;100.00;98642.50;4154545;34;20044;-72
2022/12/21 07:02:25;;;;;;;38.65;15.32;;;;;;;1.39;100.00;98628.19;4155335;34;20045;-73
2022/12/21 07:04:53;;;;;;;34.80;14.52;;;;;;;1.28;100.00;98602.25;4154634;34;20524;-73
2022/12/21 07:07:19;;;;;;;38.35;15.23;;;;;;;1.65;100.00;98631.94;4154486;34;20086;-73
2022/12/21 07:09:46;;;;;;;33.25;13.82;;;;;;;1.52;100.00;98634.56;4152078;34;20041;-73
2022/12/21 07:12:12;;;;;;;25.12;11.60;;;;;;;1.33;100.00;98607.78;4154691;34;20041;-72
2022/12/21 07:14:38;;;;;;;32.58;14.98;;;;;;;1.52;100.00;98621.31;4155993;34;20488;-73
2022/12/21 07:17:05;;;;;;;32.42;14.80;;;;;;;1.37;100.00;98582.50;4174703;34;20036;-73
2022/12/21 07:19:32;;;;;;;41.67;14.65;;;;;;;1.60;100.00;98634.38;4181099;34;20036;-72
2022/12/21 07:21:58;;;;;;;33.85;13.38;;;;;;;1.67;100.00;98618.47;4183264;34;20070;-72
2022/12/21 07:24:25;;;;;;;47.45;15.90;;;;;;;1.65;100.00;98634.59;4200993;34;20185;-74
2022/12/21 07:26:51;;;;;;;37.10;16.60;;;;;;;1.38;100.00;98599.22;4197449;34;20092;-73
2022/12/21 07:29:17;;;;;;;35.20;14.87;;;;;;;1.78;100.00;98639.91;4211502;34;20098;-74
2022/12/21 07:31:44;;;;;;;28.45;14.40;;;;;;;1.74;100.00;98636.03;4182818;34;20416;-74
2022/12/21 07:34:11;;;;;;;29.73;13.88;;;;;;;1.28;100.00;98594.31;4184478;34;20087;-74
2022/12/21 07:36:37;;;;;;;37.60;16.05;;;;;;;1.52;100.00;98632.72;4186173;34;20391;-74
2022/12/21 07:39:04;;;;;;;46.37;16.77;;;;;;;1.73;100.00;98637.03;4184575;34;20178;-74
2022/12/21 07:41:31;;;;;;;40.40;14.85;;;;;;;1.79;100.00;98644.22;4183572;34;20249;-74
2022/12/21 07:43:57;;;;;;;33.08;15.50;;;;;;;1.73;100.00;98645.00;4182220;34;20048;-73
2022/12/21 07:46:25;;;;;;;37.38;15.70;;;;;;;1.83;100.00;98644.59;4178813;34;20101;-75
2022/12/21 07:48:52;;;;;;;35.58;14.77;;;;;;;1.85;100.00;98642.59;4189461;34;20043;-74
2022/12/21 07:51:18;;;;;;;44.10;16.67;;;;;;;1.86;100.00;98638.09;4193657;34;20101;-74
2022/12/21 07:53:45;;;;;;;42.17;13.90;;;;;;;1.75;100.00;98621.72;4167494;34;20080;-74
2022/12/21 07:56:14;;;;;;;27.87;13.20;;;;;;;1.84;100.00;98640.12;4179897;34;20061;-74
2022/12/21 07:58:41;;;;;;;37.80;15.95;;;;;;;1.79;100.00;98633.59;4183940;34;20061;-74
2022/12/21 08:01:10;;;;;;;40.47;15.52;;;;;;;1.67;100.00;98603.34;4168890;34;20041;-75
2022/12/21 08:03:39;;;;;;;40.22;16.37;;;;;;;2.07;100.00;98635.22;4153861;34;20167;-74
2022/12/21 08:06:06;;;;;;;38.58;14.57;;;;;;;1.83;100.00;98596.81;4154719;34;20156;-74
2022/12/21 08:08:36;;;;;;;40.20;16.83;;;;;;;1.97;100.00;98632.16;4155248;34;20048;-74
2022/12/21 08:11:03;;;;;;;32.42;13.57;;;;;;;2.20;100.00;98633.59;4154881;34;20048;-74
2022/12/21 08:13:30;;;;;;;39.60;15.38;;;;;;;1.93;100.00;98628.28;4156975;34;20096;-75
2022/12/21 08:16:06;;;;;;;38.70;15.43;;;;;;;1.89;100.00;98595.22;4155221;34;20028;-74
2022/12/21 08:18:33;;;;;;;36.97;15.00;;;;;;;2.24;100.00;98640.16;4155638;34;20124;-74
2022/12/21 08:21:00;;;;;;;50.80;16.98;;;;;;;1.88;100.00;98630.72;4156115;34;20388;-74
2022/12/21 08:23:29;;;;;;;43.58;16.60;;;;;;;1.99;100.00;98611.53;4156946;34;20428;-73
2022/12/21 08:26:04;;;;;;;36.97;15.32;;;;;;;1.88;100.00;98598.87;4166857;34;20495;-73
2022/12/21 08:28:31;;;;;;;45.67;16.05;;;;;;;2.31;100.00;98638.28;4170406;34;20035;-73
2022/12/21 08:31:08;;;;;;;41.03;16.48;;;;;;;2.16;100.00;98636.66;4169109;34;20040;-74
2022/12/21 08:33:35;;;;;;;27.60;12.27;;;;;;;2.34;100.00;98635.22;4182217;33;20036;-73
2022/12/21 08:36:03;;;;;;;26.70;12.80;;;;;;;1.84;100.00;98598.47;4227064;33;20058;-73
2022/12/21 08:38:29;;;;;;;51.75;17.85;;;;;;;1.79;100.00;98590.31;4226992;33;20035;-74
2022/12/21 08:41:01;;;;;;;41.20;15.93;;;;;;;1.87;100.00;98594.56;4208964;34;20420;-72
2022/12/21 08:43:29;;;;;;;28.75;13.07;;;;;;;2.20;100.00;98599.06;4209305;34;20047;-73
2022/12/21 08:45:56;;;;;;;33.17;13.57;;;;;;;2.13;100.00;98622.97;4203196;34;20035;-73
2022/12/21 08:48:23;;;;;;;34.85;14.48;;;;;;;2.03;100.00;98607.47;4210821;34;20068;-73
2022/12/21 08:50:52;;;;;;;41.20;16.40;;;;;;;2.08;100.00;98610.31;4211443;34;20082;-73
2022/12/21 08:53:20;;;;;;;37.17;15.07;;;;;;;2.34;100.00;98614.78;4210862;34;20043;-73
2022/12/21 08:55:48;;;;;;;37.35;13.95;;;;;;;2.04;100.00;98571.09;4208953;34;20031;-73
2022/12/21 08:58:16;;;;;;;37.63;14.73;;;;;;;2.53;100.00;98607.78;4219329;33;20436;-73
2022/12/21 09:00:43;;;;;;;37.78;16.08;;;;;;;2.59;100.00;98611.47;4219713;34;20035;-73
2022/12/21 09:03:12;;;;;;;39.08;15.75;;;;;;;2.47;100.00;98582.06;4210277;34;20053;-74
2022/12/21 09:05:40;;;;;;;22.87;10.93;;;;;;;2.73;100.00;98609.59;4208012;34;20053;-75
2022/12/21 09:08:07;;;;;;;36.75;14.82;;;;;;;2.49;100.00;98609.25;4195648;34;20040;-73
2022/12/21 09:10:34;;;;;;;27.15;12.75;;;;;;;2.71;100.00;98603.66;4195094;34;20027;-74
2022/12/21 09:13:02;;;;;;;30.88;13.57;;;;;;;2.48;100.00;98604.94;4209562;34;20187;-73
2022/12/21 09:15:28;;;;;;;39.85;13.40;;;;;;;2.63;100.00;98603.91;4208884;34;20060;-73
2022/12/21 09:17:56;;;;;;;34.38;11.20;;;;;;;2.60;100.00;98606.97;4209663;34;20065;-73
2022/12/21 09:20:23;;;;;;;31.40;14.57;;;;;;;2.54;100.00;98604.13;4204567;34;20047;-73
2022/12/21 09:22:51;;;;;;;32.60;15.07;;;;;;;2.62;100.00;98589.00;4197060;34;20457;-75
2022/12/21 09:25:18;;;;;;;36.90;14.73;;;;;;;2.75;100.00;98614.72;4195000;34;20027;-73
2022/12/21 09:27:46;;;;;;;34.83;13.18;;;;;;;2.87;100.00;98613.84;4196712;34;20051;-73
2022/12/21 09:30:14;;;;;;;29.65;13.52;;;;;;;2.74;100.00;98608.56;4199947;34;20166;-74
2022/12/21 09:32:40;;;;;;;34.38;12.85;;;;;;;2.60;100.00;98601.66;4181613;34;20071;-74
2022/12/21 09:35:07;;;;;;;32.60;14.45;;;;;;;2.57;100.00;98602.91;4182041;34;20044;-73
2022/12/21 09:37:34;;;;;;;34.58;14.38;;;;;;;2.76;100.00;98606.53;4179984;34;20121;-73
2022/12/21 09:40:04;;;;;;;41.20;16.73;;;;;;;2.88;100.00;98615.47;4205093;34;20395;-74
2022/12/21 09:42:52;;;;;;;34.23;14.53;;;;;;;2.74;100.00;98613.87;4210227;34;20094;-73
2022/12/21 09:45:38;;;;;;;40.65;15.15;;;;;;;3.20;100.00;98607.56;4201922;34;20032;-73
2022/12/21 09:48:11;;;;;;;39.55;13.90;;;;;;;3.25;100.00;98605.06;4210376;34;20040;-74
2022/12/21 09:51:01;;;;;;;36.63;14.93;;;;;;;3.33;100.00;98611.19;4206796;34;20139;-73
2022/12/21 09:53:49;;;;;;;31.10;14.80;;;;;;;3.50;100.00;98612.34;4207134;34;20363;-75
2022/12/21 09:56:21;;;;;;;34.47;13.93;;;;;;;3.30;100.00;98571.69;4203195;34;20039;-74
2022/12/21 09:58:49;;;;;;;39.03;15.60;;;;;;;2.99;100.00;98568.78;4209827;34;20065;-73
2022/12/21 10:01:27;;;;;;;32.97;14.38;;;;;;;3.15;100.00;98599.41;4209341;34;20443;-74
2022/12/21 10:04:10;;;;;;;30.33;12.80;;;;;;;3.42;100.00;98616.06;4216689;34;20042;-74
2022/12/21 10:06:58;;;;;;;39.73;14.77;;;;;;;2.95;100.00;98566.75;4236565;33;20050;-74
2022/12/21 10:09:28;;;;;;;33.17;12.75;;;;;;;3.43;100.00;98603.56;4195982;34;20055;-73
2022/12/21 10:12:03;;;;;;;45.72;15.95;;;;;;;2.91;100.00;98571.69;4194766;34;20058;-73
2022/12/21 10:14:40;;;;;;;58.67;20.00;;;;;;;2.81;100.00;98614.69;4194804;34;20032;-74
2022/12/21 10:17:25;;;;;;;30.37;13.70;;;;;;;2.90;100.00;98557.59;4198429;34;20053;-74
2022/12/21 10:20:23;;;;;;;47.70;16.15;;;;;;;2.80;100.00;98559.87;4198998;34;20072;-74
2022/12/21 10:23:02;;;;;;;30.50;13.73;;;;;;;3.14;100.00;98608.41;4184700;34;20097;-73
2022/12/21 10:25:41;;;;;;;27.25;11.73;;;;;;;2.73;100.00;98591.81;4197265;34;20055;-74
2022/12/21 10:28:17;;;;;;;38.15;16.17;;;;;;;2.80;100.00;98597.09;4198984;34;20040;-73
2022/12/21 10:30:50;;;;;;;36.03;15.95;;;;;;;3.05;100.00;98585.75;4197002;34;20088;-74
2022/12/21 10:33:22;;;;;;;42.92;17.90;;;;;;;3.16;100.00;98565.63;4323560;29;20540;-72
2022/12/21 10:36:00;;;;;;;23.52;10.63;;;;;;;3.05;100.00;98559.97;4181827;34;20089;-73
2022/12/21 10:38:32;;;;;;;29.75;13.13;;;;;;;3.11;100.00;98576.91;4184725;34;20044;-74
2022/12/21 10:41:01;;;;;;;37.60;14.60;;;;;;;3.09;100.00;98594.94;4201503;34;20184;-74
2022/12/21 10:43:32;;;;;;;33.75;15.52;;;;;;;2.72;100.00;98578.72;4213223;34;20070;-74
2022/12/21 10:46:00;;;;;;;41.08;13.32;;;;;;;2.79;100.00;98542.28;4210489;34;20061;-73
2022/12/21 10:48:26;;;;;;;38.95;16.48;;;;;;;2.73;100.00;98580.38;4211841;34;20454;-74
2022/12/21 10:50:57;;;;;;;31.98;12.40;;;;;;;2.75;100.00;98570.31;4197111;34;20166;-74
2022/12/21 10:53:26;;;;;;;53.40;20.48;;;;;;;2.87;100.00;98573.97;4196689;34;20074;-74
2022/12/21 10:55:56;;;;;;;23.02;11.95;;;;;;;3.13;100.00;98572.22;4193083;34;20047;-74
2022/12/21 10:58:25;;;;;;;26.98;10.05;;;;;;;2.94;100.00;98570.47;4171043;34;20045;-74
2022/12/21 11:00:56;;;;;;;24.27;10.73;;;;;;;2.77;100.00;98533.69;4169723;34;20463;-73
2022/12/21 11:03:34;;;;;;;38.15;16.05;;;;;;;2.74;100.00;98555.38;4184002;34;20047;-72
2022/12/21 11:06:30;;;;;;;25.70;11.48;;;;;;;2.88;100.00;98524.25;4170430;34;20083;-74
2022/12/21 11:08:57;;;;;;;21.17;9.50;;;;;;;3.06;100.00;98558.13;4101681;34;20413;-71
2022/12/21 11:11:29;;;;;;;43.65;16.23;;;;;;;2.62;100.00;98555.25;4102266;34;20215;-73
2022/12/21 11:13:59;;;;;;;38.00;15.55;;;;;;;2.97;100.00;98543.41;4104391;34;20038;-73
2022/12/21 11:16:31;;;;;;;36.65;15.70;;;;;;;2.87;100.00;98528.75;4104507;34;20083;-73
2022/12/21 11:19:01;;;;;;;32.70;14.70;;;;;;;3.20;100.00;98551.69;4116800;34;20048;-75
2022/12/21 11:21:33;;;;;;;39.70;15.75;;;;;;;3.05;100.00;98557.31;4116664;34;20049;-74
2022/12/21 11:24:14;;;;;;;25.13;11.70;;;;;;;3.09;100.00;98552.37;4103546;35;20034;-73
2022/12/21 11:26:51;;;;;;;49.30;15.65;;;;;;;3.13;100.00;98542.12;4112575;34;20034;-74
2022/12/21 11:29:21;;;;;;;48.28;17.65;;;;;;;3.42;100.00;98546.84;4102928;34;20412;-76
2022/12/21 11:31:53;;;;;;;41.20;16.35;;;;;;;3.32;100.00;98540.38;4092221;35;20403;-75
2022/12/21 11:34:30;;;;;;;35.80;15.80;;;;;;;3.24;100.00;98550.25;4076587;35;20076;-73
2022/12/21 11:37:00;;;;;;;41.63;12.98;;;;;;;3.17;100.00;98546.00;4076610;35;20038;-73
2022/12/21 11:39:26;;;;;;;34.53;14.00;;;;;;;2.91;100.00;98535.28;4084082;35;20068;-74
2022/12/21 11:41:54;;;;;;;39.30;15.18;;;;;;;2.78;100.00;98490.16;4103586;34;20116;-74
2022/12/21 11:44:30;;;;;;;39.45;15.40;;;;;;;2.98;100.00;98502.50;4102485;34;20194;-74
2022/12/21 11:47:24;;;;;;;34.92;15.48;;;;;;;2.94;100.00;98485.38;4118311;34;20051;-74
2022/12/21 11:50:13;;;;;;;65.95;19.80;;;;;;;3.02;100.00;98514.37;4113060;34;20050;-74
2022/12/21 11:53:00;;;;;;;52.17;16.52;;;;;;;2.99;100.00;98523.56;4117844;34;20073;-73
2022/12/21 11:55:46;;;;;;;40.88;14.73;;;;;;;3.01;100.00;98521.50;4135990;34;20033;-73
2022/12/21 11:58:28;;;;;;;51.83;19.42;;;;;;;2.90;100.00;98528.34;4160187;34;20081;-74
2022/12/21 12:00:58;;;;;;;36.55;14.40;;;;;;;3.01;100.00;98486.13;4344285;28;20278;-73
2022/12/21 12:03:46;;;;;;;42.80;14.07;;;;;;;2.76;100.00;98484.22;4218807;34;20051;-73
2022/12/21 12:06:17;;;;;;;;;;;;;;;3.01;100.00;98499.44;4224686;34;20455;-73
2022/12/21 12:09:11;;;;;;;40.50;14.45;;;;;;;3.20;100.00;98511.78;4218218;34;20202;-74
2022/12/21 12:12:03;;;;;;;36.90;14.20;;;;;;;2.84;100.00;98483.97;4231625;33;20385;-73
2022/12/21 12:14:59;;;;;;;39.05;16.77;;;;;;;2.88;100.00;98479.84;4238809;33;20051;-73
2022/12/21 12:17:39;;;;;;;38.05;14.90;;;;;;;3.32;100.00;98516.41;4169368;34;20376;-74
2022/12/21 12:20:27;;;;;;;34.08;14.15;;;;;;;3.12;100.00;98509.38;4166773;34;20052;-74
2022/12/21 12:23:03;;;;;;;44.22;13.52;;;;;;;3.02;100.00;98509.84;4167020;34;20073;-74
2022/12/21 12:25:55;;;;;;;29.08;13.02;;;;;;;3.00;100.00;98522.56;4168815;34;20070;-73
2022/12/21 12:28:52;;;;;;;35.22;15.50;;;;;;;3.10;100.00;98511.44;4169562;34;20043;-73
2022/12/21 12:31:41;;;;;;;36.72;16.23;;;;;;;3.22;100.00;98507.09;4147456;34;20117;-73
2022/12/21 12:34:22;;;;;;;32.72;14.65;;;;;;;3.28;100.00;98513.38;4142072;34;20062;-74
2022/12/21 12:37:07;;;;;;;46.47;16.48;;;;;;;3.40;100.00;98505.53;4162741;34;20109;-75
2022/12/21 12:40:00;;;;;;;39.22;15.20;;;;;;;3.39;100.00;98510.03;4160433;34;20071;-73
2022/12/21 12:42:43;;;;;;;27.73;11.60;;;;;;;3.37;100.00;98506.78;4160157;34;20215;-74
2022/12/21 12:45:30;;;;;;;39.13;15.52;;;;;;;3.19;100.00;98499.53;4162313;34;20404;-73
2022/12/21 12:48:23;;;;;;;35.15;14.55;;;;;;;3.45;100.00;98497.72;4159469;34;20056;-73
2022/12/21 12:51:02;;;;;;;34.65;14.50;;;;;;;3.16;100.00;98499.13;4161134;34;20072;-74
2022/12/21 12:53:42;;;;;;;36.83;14.25;;;;;;;3.21;100.00;98454.91;4176856;34;20099;-74
2022/12/21 12:56:23;;;;;;;29.92;13.10;;;;;;;3.01;100.00;98454.22;4209905;34;20405;-74
2022/12/21 12:59:16;;;;;;;38.53;16.80;;;;;;;2.90;100.00;98453.03;4166330;34;20066;-74
2022/12/21 13:01:47;;;;;;;;;;;;;;;3.09;100.00;98494.69;4141432;34;20075;-74
2022/12/21 13:04:21;;;;;;;38.38;14.85;;;;;;;3.33;100.00;98494.09;4141044;34;19990;-73
2022/12/21 13:06:56;;;;;;;40.05;13.55;;;;;;;3.00;100.00;98489.81;4149428;34;20044;-74
2022/12/21 13:09:32;;;;;;;38.53;15.13;;;;;;;2.76;100.00;98457.66;4172401;34;20079;-74
2022/12/21 13:12:41;;;;;;;38.80;13.68;;;;;;;2.93;100.00;98494.38;4178805;34;20071;-73
2022/12/21 13:15:19;;;;;;;33.20;15.07;;;;;;;3.06;100.00;98496.94;4196874;34;20104;-74
2022/12/21 13:18:14;;;;;;;36.17;13.98;;;;;;;3.08;100.00;98497.56;4194564;34;20051;-74
2022/12/21 13:20:44;;;;;;;33.10;14.38;;;;;;;3.00;100.00;98489.81;4194127;34;20063;-73
2022/12/21 13:23:31;;;;;;;35.50;15.02;;;;;;;2.77;100.00;98453.94;4185967;34;20052;-73
2022/12/21 13:26:22;;;;;;;32.30;14.80;;;;;;;2.93;100.00;98462.44;4185406;34;20083;-74
2022/12/21 13:28:58;;;;;;;41.28;17.50;;;;;;;3.22;100.00;98487.62;4194523;34;20052;-75
2022/12/21 13:31:40;;;;;;;49.05;15.95;;;;;;;3.09;100.00;98496.50;4195845;34;20051;-77
2022/12/21 13:34:16;;;;;;;54.90;19.85;;;;;;;3.20;100.00;98501.16;4203792;34;20043;-75
2022/12/21 13:36:44;;;;;;;30.83;14.02;;;;;;;2.76;100.00;98462.13;4202821;34;20042;-77
2022/12/21 13:39:13;;;;;;;26.52;10.25;;;;;;;2.92;100.00;98485.59;4200576;34;20043;-74
2022/12/21 13:41:46;;;;;;;37.58;14.73;;;;;;;2.80;100.00;98496.06;4203382;34;20053;-74
2022/12/21 13:45:02;;;;;;;35.22;14.87;;;;;;;2.87;100.00;98488.88;4202521;34;20043;-74
2022/12/21 13:47:32;;;;;;;23.05;9.65;;;;;;;3.00;100.00;98495.12;4166921;34;20097;-74
2022/12/21 13:50:11;;;;;;;33.22;13.50;;;;;;;2.56;100.00;98451.63;4153830;34;20056;-75
2022/12/21 13:52:52;;;;;;;35.78;13.62;;;;;;;2.93;100.00;98497.81;4170157;34;20062;-75
2022/12/21 13:55:39;;;;;;;23.17;11.12;;;;;;;2.79;100.00;98473.16;4166110;34;20511;-72
2022/12/21 13:58:37;;;;;;;28.33;13.75;;;;;;;2.48;100.00;98498.66;4157715;34;20041;-74
2022/12/21 14:01:17;;;;;;;29.58;13.07;;;;;;;3.04;100.00;98509.63;4170850;34;20389;-75